MDT,Max TemperatureF,Mean TemperatureF,Min TemperatureF,Max Dew PointF,MeanDew PointF,Min DewpointF,Max Humidity, Mean Humidity, Min Humidity, Max Sea Level PressureIn, Mean Sea Level PressureIn, Min Sea Level PressureIn, Max VisibilityMiles, Mean VisibilityMiles, Min VisibilityMiles, Max Wind SpeedMPH, Mean Wind SpeedMPH, Max Gust SpeedMPH,PrecipitationIn, CloudCover, Events, WindDirDegrees
2012-9-1,83,66,49,56,51,44,96,63,30,30.08,29.95,29.83,10,10,7,38,10,45,0.07,3,Rain-Thunderstorm,178
2012-9-2,81,62,42,50,41,29,100,58,16,30.19,30.08,30.00,10,10,2,12,5,16,0.01,0,Fog,266
2012-9-3,85,62,39,43,31,18,92,50,8,30.12,30.03,29.96,10,10,10,14,4,20,0.00,0,,240
2012-9-4,85,62,39,40,31,21,79,45,10,30.12,30.02,29.97,10,10,10,26,11,32,0.00,0,,235
2012-9-5,87,66,44,33,28,24,58,34,10,30.08,29.97,29.87,10,10,10,23,11,29,0.00,0,,228
2012-9-6,76,61,45,41,36,29,65,45,25,30.09,29.96,29.85,10,10,10,22,6,28,T,1,,200
2012-9-7,80,60,40,42,36,26,85,50,15,30.25,30.19,30.07,10,10,7,13,3,17,0.00,0,,295
2012-9-8,83,59,35,37,31,21,82,47,11,30.30,30.18,30.06,10,10,10,12,3,16,0.00,0,,11
2012-9-9,89,64,39,37,32,27,76,45,13,30.09,29.95,29.76,10,10,10,18,8,23,T,1,,194
2012-9-10,82,69,55,45,32,21,61,36,11,30.04,29.84,29.75,10,10,10,24,14,30,T,1,,231
2012-9-11,72,63,53,35,27,12,47,33,18,30.09,29.99,29.88,10,10,10,24,14,29,0.00,0,,225
2012-9-12,72,54,36,24,19,15,52,33,13,30.34,30.23,30.09,10,10,8,14,6,18,0.00,0,,231
2012-9-13,82,57,31,28,23,16,69,39,9,30.47,30.36,30.28,10,10,8,10,3,13,0.00,0,,19
2012-9-14,86,59,32,29,21,8,75,40,5,30.33,30.22,30.05,10,10,10,13,4,16,0.00,0,,234
2012-9-15,87,63,39,31,25,13,49,29,8,30.19,30.07,30.01,10,10,10,21,8,25,0.00,0,,255
2012-9-16,83,62,40,38,30,19,65,38,11,30.15,30.03,29.97,10,10,10,22,9,29,0.00,1,,274
2012-9-17,76,57,38,40,33,26,70,45,19,30.18,30.12,30.04,10,9,6,13,5,18,0.00,0,,234
2012-9-18,81,59,37,33,25,15,70,40,9,30.21,30.13,30.07,10,10,8,17,6,22,0.00,0,,243
2012-9-19,80,58,36,30,26,20,59,36,12,30.18,30.13,30.07,10,10,9,12,5,13,0.00,0,,253
2012-9-20,79,59,38,37,29,25,60,37,13,30.25,30.15,30.09,10,6,2,9,3,10,0.00,5,,222
2012-9-21,82,59,36,34,28,21,70,41,11,30.19,30.10,30.03,8,4,3,8,3,10,0.00,1,,32
2012-9-22,86,61,36,34,29,21,76,43,10,30.16,30.03,29.94,10,7,4,12,4,15,0.00,0,,39
2012-9-23,83,67,51,45,36,27,66,42,18,30.08,29.99,29.92,10,10,8,35,9,48,T,3,Rain,199
2012-9-24,61,52,43,52,48,43,96,78,60,30.07,30.03,29.99,10,10,10,13,3,15,0.03,6,Rain,233
2012-9-25,70,55,39,48,43,39,97,69,29,30.08,30.01,29.96,10,10,10,10,3,14,0.00,4,,308
2012-9-26,75,57,39,46,43,38,92,63,33,30.08,30.03,29.97,10,10,10,10,4,15,0.00,1,,291
2012-9-27,78,59,40,43,38,31,86,53,20,30.14,30.07,30.01,10,10,10,12,4,16,0.00,0,,89
2012-9-28,81,59,37,41,36,29,85,51,16,30.10,30.01,29.93,10,10,10,13,5,16,0.00,0,,261
2012-9-29,80,65,49,40,35,30,63,41,18,30.12,30.05,29.96,10,10,10,16,8,21,0.00,1,,229
2012-9-30,79,61,43,37,33,30,62,41,19,30.25,30.16,30.06,10,10,10,17,9,23,0.00,0,,233